createdAt,value
2019-04-03T00:01:26.796Z,12.40
2019-04-03T00:06:30.395Z,12.50
2019-04-03T00:11:34.568Z,12.30
2019-04-03T00:16:38.200Z,12.20
2019-04-03T00:21:41.786Z,12.30
2019-04-03T00:26:45.803Z,12.10
2019-04-03T00:31:49.390Z,12.20
2019-04-03T00:36:53.717Z,11.90
2019-04-03T00:41:57.561Z,11.90
2019-04-03T00:47:01.255Z,12.00
2019-04-03T00:52:04.939Z,11.90
2019-04-03T00:57:08.548Z,11.90
2019-04-03T01:02:12.195Z,11.70
2019-04-03T01:07:15.949Z,11.60
2019-04-03T01:12:19.809Z,11.30
2019-04-03T01:17:23.406Z,11.40
2019-04-03T01:22:27.180Z,11.40
2019-04-03T01:27:31.217Z,11.30
2019-04-03T01:32:34.882Z,11.20
2019-04-03T01:37:38.469Z,11.20
2019-04-03T01:42:42.400Z,11.30
2019-04-03T01:47:45.992Z,11.00
2019-04-03T01:52:49.580Z,11.20
2019-04-03T01:57:53.170Z,11.20
2019-04-03T02:02:56.860Z,11.20
2019-04-03T02:08:00.609Z,11.30
2019-04-03T02:13:04.437Z,11.30
2019-04-03T02:18:08.041Z,11.30
2019-04-03T02:23:11.781Z,11.20
2019-04-03T02:28:15.507Z,11.20
2019-04-03T02:33:19.179Z,11.30
2019-04-03T02:38:23.425Z,11.10
2019-04-03T02:43:27.569Z,10.90
2019-04-03T02:48:31.624Z,10.90
2019-04-03T02:53:35.969Z,10.80
2019-04-03T02:58:40.214Z,10.50
2019-04-03T03:27:47.724Z,10.50
2019-04-03T03:32:52.161Z,10.50
2019-04-03T03:37:56.844Z,10.30
2019-04-03T03:43:05.038Z,10.30
2019-04-03T03:48:09.141Z,10.40
2019-04-03T03:53:13.593Z,10.60
2019-04-03T03:58:19.118Z,10.80
2019-04-03T04:03:23.587Z,10.80
2019-04-03T04:08:28.598Z,10.70
2019-04-03T04:13:32.533Z,10.70
2019-04-03T04:18:36.404Z,10.70
2019-04-03T04:23:41.245Z,10.70
2019-04-03T04:28:45.174Z,10.80
2019-04-03T04:33:48.929Z,10.70
2019-04-03T04:38:52.520Z,10.80
2019-04-03T04:43:56.180Z,10.70
2019-04-03T04:48:59.769Z,10.70
2019-04-03T04:54:03.757Z,10.50
2019-04-03T04:59:07.426Z,10.50
2019-04-03T05:04:11.417Z,10.70
2019-04-03T05:09:14.997Z,10.50
2019-04-03T05:14:18.756Z,10.50
2019-04-03T05:19:22.615Z,10.60
2019-04-03T05:24:26.928Z,10.60
2019-04-03T05:29:34.199Z,10.70
2019-04-03T05:34:36.938Z,10.80
2019-04-03T05:39:40.644Z,10.80
2019-04-03T05:44:44.245Z,11.00
2019-04-03T05:49:50.687Z,11.00
2019-04-03T05:54:53.588Z,11.10
2019-04-03T06:00:00.690Z,11.10
2019-04-03T06:05:06.053Z,11.00
2019-04-03T06:10:08.641Z,11.10
2019-04-03T06:15:12.660Z,11.10
2019-04-03T06:20:16.397Z,11.00
2019-04-03T06:25:20.152Z,11.10
2019-04-03T06:30:25.008Z,10.90
2019-04-03T06:35:29.813Z,10.80
2019-04-03T06:40:35.933Z,10.90
2019-04-03T06:45:39.581Z,10.70
2019-04-03T06:50:43.361Z,10.50
2019-04-03T06:55:46.956Z,10.50
2019-04-03T07:00:50.628Z,10.30
2019-04-03T07:05:54.335Z,10.20
2019-04-03T07:10:58.244Z,10.20
2019-04-03T07:16:01.838Z,10.50
2019-04-03T07:21:05.628Z,10.80
2019-04-03T07:26:09.620Z,10.70
2019-04-03T07:31:13.271Z,10.70
2019-04-03T07:36:17.179Z,10.40
2019-04-03T07:41:23.378Z,10.40
2019-04-03T07:46:26.433Z,10.30
2019-04-03T07:51:30.387Z,10.50
2019-04-03T07:56:34.052Z,10.60
2019-04-03T08:01:38.793Z,10.80
2019-04-03T08:06:43.667Z,10.80
2019-04-03T08:11:47.320Z,10.80
2019-04-03T08:16:50.988Z,10.80
2019-04-03T08:21:54.708Z,10.80
2019-04-03T08:26:58.262Z,11.00
2019-04-03T08:32:01.926Z,11.20
2019-04-03T08:37:05.843Z,11.30
2019-04-03T08:42:09.508Z,11.30
2019-04-03T08:47:14.244Z,11.30
2019-04-03T08:52:18.303Z,11.40
2019-04-03T08:57:21.887Z,11.50
2019-04-03T09:02:25.797Z,11.60
2019-04-03T09:07:29.695Z,11.70
2019-04-03T09:12:33.307Z,11.60
2019-04-03T09:17:36.953Z,11.60
2019-04-03T09:22:40.930Z,11.60
2019-04-03T09:27:44.941Z,11.60
2019-04-03T09:32:48.625Z,12.40
2019-04-03T09:37:52.271Z,12.20
2019-04-03T09:42:55.946Z,12.20
2019-04-03T09:47:59.631Z,11.90
2019-04-03T09:53:03.508Z,11.70
2019-04-03T09:58:07.145Z,12.00
2019-04-03T10:03:11.716Z,12.40
2019-04-03T10:08:15.317Z,12.30
2019-04-03T10:13:19.366Z,12.60
2019-04-03T10:18:22.953Z,12.50
2019-04-03T10:23:28.765Z,12.20
2019-04-03T10:28:32.002Z,12.20
2019-04-03T10:33:35.981Z,12.00
2019-04-03T10:38:41.878Z,11.60
2019-04-03T10:43:45.394Z,11.60
2019-04-03T10:48:49.451Z,11.80
2019-04-03T10:53:53.121Z,11.60
2019-04-03T10:59:08.886Z,11.40
2019-04-03T11:04:02.101Z,11.00
2019-04-03T11:09:07.861Z,11.00
2019-04-03T11:14:11.450Z,10.50
2019-04-03T11:19:15.337Z,10.20
2019-04-03T11:24:19.088Z,9.80
2019-04-03T11:29:23.219Z,9.50
2019-04-03T11:34:26.852Z,9.40
2019-04-03T11:39:30.381Z,9.10
2019-04-03T11:44:33.970Z,9.00
2019-04-03T11:49:37.952Z,9.10
2019-04-03T11:54:41.668Z,9.50
2019-04-03T11:59:46.981Z,9.60
2019-04-03T12:04:50.567Z,9.50
2019-04-03T12:09:54.432Z,9.60
2019-04-03T12:14:58.014Z,9.20
2019-04-03T12:20:01.588Z,9.10
2019-04-03T12:25:06.381Z,9.30
2019-04-03T12:30:10.500Z,9.60
2019-04-03T12:35:14.421Z,9.70
2019-04-03T12:40:18.246Z,9.80
2019-04-03T12:45:21.956Z,9.90
2019-04-03T12:50:27.609Z,9.80
2019-04-03T12:55:31.563Z,9.90
2019-04-03T13:00:35.944Z,9.90
2019-04-03T13:05:39.591Z,9.90
2019-04-03T13:10:47.554Z,9.80
2019-04-03T13:15:48.473Z,9.50
2019-04-03T13:20:52.424Z,9.50
2019-04-03T13:25:56.283Z,9.40
2019-04-03T13:31:00.604Z,9.20
2019-04-03T13:36:05.250Z,9.30
2019-04-03T13:41:10.648Z,9.40
2019-04-03T13:46:14.429Z,9.20
2019-04-03T13:51:18.020Z,9.10
2019-04-03T13:56:24.148Z,8.90
2019-04-03T14:01:27.897Z,8.90
2019-04-03T14:06:32.061Z,8.70
2019-04-03T14:11:35.714Z,8.70
2019-04-03T14:16:39.409Z,8.60
2019-04-03T14:21:43.270Z,8.60
2019-04-03T14:26:46.929Z,8.50
2019-04-03T14:31:50.844Z,8.60
2019-04-03T14:36:54.916Z,8.50
2019-04-03T14:41:58.732Z,8.40
2019-04-03T14:47:02.349Z,8.30
2019-04-03T14:52:06.320Z,8.10
2019-04-03T14:57:20.213Z,8.20
2019-04-03T15:02:15.943Z,7.90
2019-04-03T15:07:19.827Z,8.00
2019-04-03T15:12:23.454Z,8.00
2019-04-03T15:17:27.050Z,8.00
2019-04-03T15:22:32.382Z,7.40
2019-04-03T15:27:36.458Z,7.10
2019-04-03T15:32:40.173Z,7.10
2019-04-03T15:37:44.375Z,6.90
2019-04-03T15:42:48.087Z,6.60
2019-04-03T15:47:54.092Z,6.40
2019-04-03T15:52:57.033Z,6.30
2019-04-03T15:58:00.610Z,6.30
2019-04-03T16:03:04.916Z,6.20
2019-04-03T16:08:10.012Z,6.00
2019-04-03T16:13:15.809Z,6.00
2019-04-03T16:18:20.650Z,5.90
2019-04-03T16:23:25.104Z,6.00
2019-04-03T16:28:28.781Z,6.00
2019-04-03T16:33:35.088Z,5.90
2019-04-03T16:38:37.579Z,5.90
2019-04-03T16:43:41.252Z,6.00
2019-04-03T16:48:44.849Z,6.10
2019-04-03T16:53:48.440Z,6.30
2019-04-03T16:58:52.396Z,6.50
2019-04-03T17:03:56.445Z,6.50
2019-04-03T17:09:00.072Z,6.40
2019-04-03T17:14:04.786Z,6.50
2019-04-03T17:19:08.750Z,6.60
2019-04-03T17:24:12.464Z,6.70
2019-04-03T17:29:16.060Z,6.80
2019-04-03T17:34:19.705Z,6.90
2019-04-03T17:39:23.306Z,7.00
2019-04-03T17:44:26.889Z,6.80
2019-04-03T17:49:30.477Z,7.10
2019-04-03T17:54:34.414Z,7.10
2019-04-03T17:59:38.337Z,7.10
2019-04-03T18:04:41.926Z,6.70
2019-04-03T18:09:45.521Z,6.60
2019-04-03T18:14:49.423Z,6.40
2019-04-03T18:19:53.111Z,6.30
2019-04-03T18:24:57.449Z,6.20
2019-04-03T18:30:01.044Z,6.10
2019-04-03T18:35:07.211Z,6.30
2019-04-03T18:40:14.267Z,6.50
2019-04-03T18:45:25.149Z,6.50
2019-04-03T18:50:22.947Z,6.70
2019-04-03T18:55:26.806Z,6.50
2019-04-03T19:00:31.233Z,6.50
2019-04-03T19:05:34.969Z,6.60
2019-04-03T19:10:38.563Z,6.70
2019-04-03T19:15:42.137Z,6.70
2019-04-03T19:20:45.728Z,6.80
2019-04-03T19:25:49.674Z,6.80
2019-04-03T19:30:53.725Z,6.80
2019-04-03T19:35:58.662Z,6.60
2019-04-03T19:41:02.841Z,6.70
2019-04-03T19:46:06.488Z,6.90
2019-04-03T19:51:10.157Z,6.70
2019-04-03T19:56:14.092Z,6.80
2019-04-03T20:01:17.688Z,6.80
2019-04-03T20:06:22.862Z,6.90
2019-04-03T20:11:27.006Z,6.70
2019-04-03T20:16:30.597Z,6.80
2019-04-03T20:21:35.973Z,6.90
2019-04-03T20:26:39.473Z,6.70
2019-04-03T20:31:43.336Z,6.70
2019-04-03T20:36:46.934Z,6.70
2019-04-03T20:41:50.989Z,6.50
2019-04-03T20:46:55.941Z,6.50
2019-04-03T20:51:59.864Z,6.30
2019-04-03T20:57:03.592Z,6.00
2019-04-03T21:02:08.273Z,5.90
2019-04-03T21:07:12.992Z,6.10
2019-04-03T21:12:16.895Z,6.10
2019-04-03T21:17:23.829Z,6.30
2019-04-03T21:22:29.573Z,6.00
2019-04-03T21:27:31.744Z,6.20
2019-04-03T21:32:35.342Z,6.30
2019-04-03T21:37:40.534Z,6.40
2019-04-03T21:42:44.389Z,6.50
2019-04-03T21:47:48.464Z,6.60
2019-04-03T21:52:53.765Z,6.70
2019-04-03T21:57:57.372Z,6.80
2019-04-03T22:03:01.025Z,6.90
2019-04-03T22:08:04.777Z,6.70
2019-04-03T22:13:08.402Z,6.70
2019-04-03T22:18:12.038Z,7.00
2019-04-03T22:23:15.630Z,6.90
2019-04-03T22:28:19.285Z,6.90
2019-04-03T22:33:23.269Z,6.90
2019-04-03T22:38:26.956Z,7.00
2019-04-03T22:43:30.541Z,6.80
2019-04-03T22:48:34.202Z,6.90
2019-04-03T22:53:37.800Z,6.90
2019-04-03T22:58:41.797Z,6.70
2019-04-03T23:03:45.389Z,6.60
2019-04-03T23:08:48.976Z,6.40
2019-04-03T23:13:52.671Z,6.50
2019-04-03T23:18:56.249Z,6.50
2019-04-03T23:23:59.821Z,6.80
2019-04-03T23:29:05.203Z,6.80
2019-04-03T23:34:08.835Z,6.80
2019-04-03T23:39:12.412Z,6.90
2019-04-03T23:44:16.060Z,7.00
2019-04-03T23:49:20.185Z,7.00
2019-04-03T23:54:24.293Z,6.70
2019-04-03T23:59:28.337Z,6.90
